N301HZ KTPA-KLAL
Flight info
| Callsign | N301HZ |
|---|---|
| Flight time | 0h 38m |
| Altitude | VFR/035 |
| Route | |
| Aircraft | C172/L-VGD/A |
Departure
| Time | 2026-04-21 23:31 |
|---|---|
| Airport | Tampa International Airport (KTPA) |
Arrival
| Time | 2026-04-22 00:10 |
|---|---|
| Airport | Lakeland Linder International Airport (KLAL) |
| Time | Latitude | Longitude | Altitude | Speed | Heading |
|---|---|---|---|---|---|
| 2026-04-21 23:24 | 27.98379 | -82.52510 | 31 ft | 0 kts | 90° |
| 2026-04-21 23:25 | 27.98379 | -82.52507 | 31 ft | 1 kts | 109° |
| 2026-04-21 23:25 | 27.98359 | -82.52546 | 31 ft | 14 kts | 262° |
| 2026-04-21 23:26 | 27.98319 | -82.52583 | 31 ft | 0 kts | 240° |
| 2026-04-21 23:28 | 27.98319 | -82.52584 | 31 ft | 2 kts | 239° |
| 2026-04-21 23:28 | 27.98299 | -82.52658 | 31 ft | 18 kts | 217° |
| 2026-04-21 23:28 | 27.98137 | -82.52673 | 28 ft | 30 kts | 187° |
| 2026-04-21 23:28 | 27.97892 | -82.52686 | 26 ft | 38 kts | 180° |
| 2026-04-21 23:29 | 27.97622 | -82.52696 | 22 ft | 39 kts | 177° |
| 2026-04-21 23:29 | 27.97367 | -82.52678 | 26 ft | 28 kts | 177° |
| 2026-04-21 23:29 | 27.97295 | -82.52742 | 24 ft | 10 kts | 268° |
| 2026-04-21 23:29 | 27.97296 | -82.52778 | 24 ft | 4 kts | 274° |
| 2026-04-21 23:30 | 27.97302 | -82.52850 | 24 ft | 13 kts | 291° |
| 2026-04-21 23:30 | 27.97430 | -82.52865 | 23 ft | 38 kts | 2° |
| 2026-04-21 23:30 | 27.97845 | -82.52858 | 37 ft | 77 kts | 2° |
| 2026-04-21 23:30 | 27.98406 | -82.52841 | 158 ft | 86 kts | 19° |
| 2026-04-21 23:31 | 27.98952 | -82.52758 | 491 ft | 75 kts | 15° |
| 2026-04-21 23:31 | 27.99462 | -82.52533 | 613 ft | 83 kts | 57° |
| 2026-04-21 23:31 | 27.99846 | -82.51992 | 727 ft | 91 kts | 54° |
| 2026-04-21 23:31 | 28.00293 | -82.51493 | 926 ft | 88 kts | 52° |
| 2026-04-21 23:32 | 28.00672 | -82.51032 | 1206 ft | 77 kts | 53° |
| 2026-04-21 23:32 | 28.01060 | -82.50587 | 1343 ft | 80 kts | 53° |
| 2026-04-21 23:32 | 28.01446 | -82.50127 | 1519 ft | 82 kts | 53° |
| 2026-04-21 23:32 | 28.01834 | -82.49659 | 1681 ft | 83 kts | 53° |
| 2026-04-21 23:33 | 28.02233 | -82.49185 | 1826 ft | 85 kts | 54° |
| 2026-04-21 23:33 | 28.02674 | -82.48683 | 1846 ft | 96 kts | 53° |
| 2026-04-21 23:33 | 28.03162 | -82.48129 | 1850 ft | 100 kts | 54° |
| 2026-04-21 23:33 | 28.03655 | -82.47553 | 1845 ft | 104 kts | 52° |
| 2026-04-21 23:34 | 28.04136 | -82.46945 | 1843 ft | 104 kts | 54° |
| 2026-04-21 23:34 | 28.04621 | -82.46328 | 1787 ft | 107 kts | 54° |
| 2026-04-21 23:34 | 28.05126 | -82.45703 | 1676 ft | 109 kts | 53° |
| 2026-04-21 23:34 | 28.05623 | -82.45063 | 1613 ft | 108 kts | 54° |
| 2026-04-21 23:35 | 28.06114 | -82.44427 | 1607 ft | 106 kts | 53° |
| 2026-04-21 23:35 | 28.06595 | -82.43832 | 1604 ft | 99 kts | 54° |
| 2026-04-21 23:35 | 28.07050 | -82.43285 | 1607 ft | 96 kts | 53° |
| 2026-04-21 23:35 | 28.07507 | -82.42716 | 1608 ft | 99 kts | 54° |
| 2026-04-21 23:36 | 28.07991 | -82.42124 | 1607 ft | 103 kts | 54° |
| 2026-04-21 23:36 | 28.08473 | -82.41529 | 1611 ft | 103 kts | 54° |
| 2026-04-21 23:36 | 28.08952 | -82.40958 | 1608 ft | 98 kts | 53° |
| 2026-04-21 23:36 | 28.09440 | -82.40363 | 1610 ft | 109 kts | 54° |
| 2026-04-21 23:37 | 28.09957 | -82.39727 | 1623 ft | 114 kts | 54° |
| 2026-04-21 23:37 | 28.10501 | -82.39063 | 1618 ft | 113 kts | 54° |
| 2026-04-21 23:37 | 28.11041 | -82.38418 | 1602 ft | 113 kts | 54° |
| 2026-04-21 23:37 | 28.11572 | -82.37770 | 1610 ft | 113 kts | 54° |
| 2026-04-21 23:38 | 28.12095 | -82.37118 | 1608 ft | 109 kts | 54° |
| 2026-04-21 23:38 | 28.12595 | -82.36521 | 1609 ft | 102 kts | 54° |
| 2026-04-21 23:38 | 28.12922 | -82.35872 | 1594 ft | 93 kts | 78° |
| 2026-04-21 23:38 | 28.13116 | -82.35162 | 1610 ft | 98 kts | 74° |
| 2026-04-21 23:39 | 28.13340 | -82.34433 | 1604 ft | 97 kts | 72° |
| 2026-04-21 23:39 | 28.13561 | -82.33721 | 1623 ft | 93 kts | 75° |
| 2026-04-21 23:39 | 28.13778 | -82.33036 | 1618 ft | 92 kts | 76° |
| 2026-04-21 23:39 | 28.13997 | -82.32360 | 1625 ft | 94 kts | 75° |
| 2026-04-21 23:40 | 28.14225 | -82.31646 | 1627 ft | 99 kts | 73° |
| 2026-04-21 23:40 | 28.14462 | -82.30909 | 1617 ft | 100 kts | 72° |
| 2026-04-21 23:40 | 28.14696 | -82.30190 | 1619 ft | 98 kts | 72° |
| 2026-04-21 23:40 | 28.14932 | -82.29461 | 1614 ft | 98 kts | 74° |
| 2026-04-21 23:41 | 28.15174 | -82.28718 | 1630 ft | 100 kts | 74° |
| 2026-04-21 23:41 | 28.15414 | -82.27965 | 1641 ft | 105 kts | 73° |
| 2026-04-21 23:41 | 28.15669 | -82.27179 | 1633 ft | 108 kts | 76° |
| 2026-04-21 23:41 | 28.15915 | -82.26419 | 1626 ft | 98 kts | 73° |
| 2026-04-21 23:42 | 28.16156 | -82.25688 | 1631 ft | 101 kts | 75° |
| 2026-04-21 23:42 | 28.16388 | -82.24962 | 1630 ft | 94 kts | 74° |
| 2026-04-21 23:42 | 28.16616 | -82.24250 | 1631 ft | 102 kts | 75° |
| 2026-04-21 23:42 | 28.16858 | -82.23501 | 1647 ft | 103 kts | 74° |
| 2026-04-21 23:43 | 28.17111 | -82.22715 | 1632 ft | 105 kts | 74° |
| 2026-04-21 23:43 | 28.17363 | -82.21937 | 1632 ft | 108 kts | 75° |
| 2026-04-21 23:43 | 28.17606 | -82.21182 | 1643 ft | 101 kts | 72° |
| 2026-04-21 23:43 | 28.17850 | -82.20430 | 1629 ft | 100 kts | 73° |
| 2026-04-21 23:44 | 28.18085 | -82.19698 | 1636 ft | 100 kts | 73° |
| 2026-04-21 23:44 | 28.18332 | -82.18931 | 1628 ft | 106 kts | 74° |
| 2026-04-21 23:44 | 28.18581 | -82.18164 | 1628 ft | 101 kts | 76° |
| 2026-04-21 23:44 | 28.18815 | -82.17441 | 1624 ft | 97 kts | 76° |
| 2026-04-21 23:45 | 28.19044 | -82.16732 | 1626 ft | 94 kts | 73° |
| 2026-04-21 23:45 | 28.19242 | -82.15325 | 1634 ft | 91 kts | 70° |
| 2026-04-21 23:45 | 28.19519 | -82.14695 | 1632 ft | 88 kts | 72° |
| 2026-04-21 23:46 | 28.19758 | -82.14057 | 1558 ft | 91 kts | 74° |
| 2026-04-21 23:46 | 28.20003 | -82.13346 | 1303 ft | 100 kts | 75° |
| 2026-04-21 23:46 | 28.20244 | -82.12637 | 1239 ft | 89 kts | 70° |
| 2026-04-21 23:46 | 28.20449 | -82.12034 | 1223 ft | 75 kts | 73° |
| 2026-04-21 23:47 | 28.20618 | -82.11530 | 1221 ft | 62 kts | 73° |
| 2026-04-21 23:47 | 28.20777 | -82.11071 | 1233 ft | 70 kts | 74° |
| 2026-04-21 23:47 | 28.20966 | -82.10499 | 1247 ft | 84 kts | 75° |
| 2026-04-21 23:47 | 28.21184 | -82.09825 | 1248 ft | 97 kts | 74° |
| 2026-04-21 23:48 | 28.21426 | -82.09083 | 1249 ft | 105 kts | 73° |
| 2026-04-21 23:48 | 28.21680 | -82.08304 | 1243 ft | 104 kts | 72° |
| 2026-04-21 23:48 | 28.21928 | -82.07553 | 1243 ft | 104 kts | 73° |
| 2026-04-21 23:48 | 28.22181 | -82.06771 | 1242 ft | 105 kts | 73° |
| 2026-04-21 23:49 | 28.22351 | -82.06251 | 1246 ft | 107 kts | 72° |
| 2026-04-21 23:49 | 28.22610 | -82.05451 | 1243 ft | 105 kts | 74° |
| 2026-04-21 23:49 | 28.22930 | -82.04471 | 1235 ft | 96 kts | 72° |
| 2026-04-21 23:49 | 28.23160 | -82.03766 | 1231 ft | 95 kts | 72° |
| 2026-04-21 23:50 | 28.23314 | -82.03296 | 1224 ft | 96 kts | 74° |
| 2026-04-21 23:50 | 28.23546 | -82.02581 | 1231 ft | 97 kts | 73° |
| 2026-04-21 23:50 | 28.23781 | -82.01861 | 1227 ft | 97 kts | 72° |
| 2026-04-21 23:50 | 28.24013 | -82.01146 | 1237 ft | 99 kts | 71° |
| 2026-04-21 23:51 | 28.24255 | -82.00400 | 1232 ft | 101 kts | 72° |
| 2026-04-21 23:51 | 28.24501 | -81.99648 | 1229 ft | 102 kts | 73° |
| 2026-04-21 23:51 | 28.24747 | -81.98890 | 1224 ft | 102 kts | 71° |
| 2026-04-21 23:51 | 28.24990 | -81.98147 | 1230 ft | 100 kts | 74° |
| 2026-04-21 23:52 | 28.25231 | -81.97403 | 1225 ft | 102 kts | 73° |
| 2026-04-21 23:52 | 28.25480 | -81.96637 | 1234 ft | 106 kts | 74° |
| 2026-04-21 23:52 | 28.25741 | -81.95829 | 1218 ft | 107 kts | 73° |
| 2026-04-21 23:52 | 28.25997 | -81.95048 | 1170 ft | 111 kts | 70° |
| 2026-04-21 23:53 | 28.26268 | -81.94212 | 1191 ft | 109 kts | 74° |
| 2026-04-21 23:53 | 28.26524 | -81.93417 | 1209 ft | 107 kts | 72° |
| 2026-04-21 23:53 | 28.26704 | -81.92618 | 1221 ft | 102 kts | 89° |
| 2026-04-21 23:53 | 28.26598 | -81.91829 | 1223 ft | 102 kts | 107° |
| 2026-04-21 23:54 | 28.26224 | -81.91131 | 1211 ft | 107 kts | 127° |
| 2026-04-21 23:54 | 28.25693 | -81.90566 | 1209 ft | 102 kts | 129° |
| 2026-04-21 23:54 | 28.25183 | -81.90007 | 1206 ft | 102 kts | 129° |
| 2026-04-21 23:54 | 28.24665 | -81.89442 | 1212 ft | 103 kts | 127° |
| 2026-04-21 23:55 | 28.24113 | -81.88845 | 1147 ft | 112 kts | 137° |
| 2026-04-21 23:55 | 28.23549 | -81.88230 | 1194 ft | 115 kts | 138° |
| 2026-04-21 23:55 | 28.22967 | -81.87601 | 1199 ft | 118 kts | 137° |
| 2026-04-21 23:55 | 28.22364 | -81.86948 | 1202 ft | 120 kts | 137° |
| 2026-04-21 23:56 | 28.21781 | -81.86322 | 1193 ft | 110 kts | 138° |
| 2026-04-21 23:56 | 28.21247 | -81.85743 | 1192 ft | 104 kts | 138° |
| 2026-04-21 23:56 | 28.20727 | -81.85181 | 1192 ft | 102 kts | 138° |
| 2026-04-21 23:56 | 28.20221 | -81.84630 | 1192 ft | 99 kts | 137° |
| 2026-04-21 23:57 | 28.19725 | -81.84090 | 1195 ft | 102 kts | 137° |
| 2026-04-21 23:57 | 28.19205 | -81.83526 | 1201 ft | 105 kts | 138° |
| 2026-04-21 23:57 | 28.18663 | -81.82939 | 1210 ft | 110 kts | 137° |
| 2026-04-21 23:57 | 28.18104 | -81.82336 | 1209 ft | 113 kts | 137° |
| 2026-04-21 23:58 | 28.17529 | -81.81717 | 1211 ft | 114 kts | 140° |
| 2026-04-21 23:58 | 28.16823 | -81.81372 | 1211 ft | 112 kts | 178° |
| 2026-04-21 23:58 | 28.16090 | -81.81579 | 1209 ft | 108 kts | 214° |
| 2026-04-21 23:58 | 28.15546 | -81.82157 | 1207 ft | 108 kts | 222° |
| 2026-04-21 23:59 | 28.14893 | -81.82541 | 1201 ft | 108 kts | 200° |
| 2026-04-21 23:59 | 28.14183 | -81.82810 | 1201 ft | 107 kts | 200° |
| 2026-04-21 23:59 | 28.13471 | -81.83074 | 1200 ft | 107 kts | 199° |
| 2026-04-21 23:59 | 28.12763 | -81.83331 | 1199 ft | 106 kts | 199° |
| 2026-04-22 00:00 | 28.12054 | -81.83588 | 1200 ft | 107 kts | 199° |
| 2026-04-22 00:00 | 28.11456 | -81.84022 | 1200 ft | 105 kts | 237° |
| 2026-04-22 00:00 | 28.11056 | -81.84709 | 1201 ft | 103 kts | 237° |
| 2026-04-22 00:00 | 28.10655 | -81.85381 | 1200 ft | 103 kts | 237° |
| 2026-04-22 00:01 | 28.10259 | -81.86047 | 1198 ft | 103 kts | 237° |
| 2026-04-22 00:01 | 28.09863 | -81.86729 | 1199 ft | 103 kts | 241° |
| 2026-04-22 00:01 | 28.09607 | -81.87484 | 1203 ft | 103 kts | 256° |
| 2026-04-22 00:01 | 28.09424 | -81.88281 | 1210 ft | 106 kts | 256° |
| 2026-04-22 00:02 | 28.09239 | -81.89094 | 1209 ft | 107 kts | 256° |
| 2026-04-22 00:02 | 28.09056 | -81.89896 | 1206 ft | 105 kts | 256° |
| 2026-04-22 00:02 | 28.08873 | -81.90690 | 1207 ft | 104 kts | 256° |
| 2026-04-22 00:02 | 28.08693 | -81.91481 | 1202 ft | 102 kts | 256° |
| 2026-04-22 00:03 | 28.08515 | -81.92261 | 1201 ft | 102 kts | 256° |
| 2026-04-22 00:03 | 28.08341 | -81.93021 | 1176 ft | 101 kts | 258° |
| 2026-04-22 00:03 | 28.08181 | -81.93808 | 1161 ft | 101 kts | 259° |
| 2026-04-22 00:03 | 28.08093 | -81.94556 | 1200 ft | 96 kts | 270° |
| 2026-04-22 00:04 | 28.08066 | -81.95322 | 1185 ft | 97 kts | 266° |
| 2026-04-22 00:04 | 28.07975 | -81.96077 | 1154 ft | 98 kts | 263° |
| 2026-04-22 00:04 | 28.07881 | -81.96818 | 1138 ft | 97 kts | 260° |
| 2026-04-22 00:04 | 28.07720 | -81.97555 | 1184 ft | 96 kts | 253° |
| 2026-04-22 00:05 | 28.07469 | -81.98277 | 1209 ft | 100 kts | 246° |
| 2026-04-22 00:05 | 28.07118 | -81.98945 | 1238 ft | 102 kts | 232° |
| 2026-04-22 00:05 | 28.06650 | -81.99581 | 1214 ft | 107 kts | 231° |
| 2026-04-22 00:05 | 28.06156 | -82.00215 | 1209 ft | 108 kts | 230° |
| 2026-04-22 00:06 | 28.05676 | -82.00881 | 1188 ft | 109 kts | 233° |
| 2026-04-22 00:06 | 28.05216 | -82.01561 | 1200 ft | 105 kts | 232° |
| 2026-04-22 00:06 | 28.04775 | -82.02168 | 1203 ft | 98 kts | 233° |
| 2026-04-22 00:06 | 28.04159 | -82.02467 | 1178 ft | 101 kts | 189° |
| 2026-04-22 00:07 | 28.03465 | -82.02542 | 1167 ft | 101 kts | 184° |
| 2026-04-22 00:07 | 28.02742 | -82.02568 | 1122 ft | 108 kts | 185° |
| 2026-04-22 00:07 | 28.02036 | -82.02645 | 1131 ft | 98 kts | 184° |
| 2026-04-22 00:07 | 28.01378 | -82.02669 | 1187 ft | 91 kts | 183° |
| 2026-04-22 00:08 | 28.00769 | -82.02870 | 1057 ft | 100 kts | 235° |
| 2026-04-22 00:08 | 28.00640 | -82.03600 | 997 ft | 92 kts | 271° |
| 2026-04-22 00:08 | 28.00459 | -82.04317 | 878 ft | 104 kts | 219° |
| 2026-04-22 00:08 | 27.99786 | -82.04589 | 776 ft | 94 kts | 199° |
| 2026-04-22 00:09 | 27.99236 | -82.04389 | 660 ft | 101 kts | 120° |
| 2026-04-22 00:09 | 27.99037 | -82.03641 | 382 ft | 98 kts | 90° |
| 2026-04-22 00:09 | 27.99039 | -82.02929 | 217 ft | 80 kts | 89° |
| 2026-04-22 00:09 | 27.99038 | -82.02382 | 154 ft | 69 kts | 89° |
| 2026-04-22 00:10 | 27.99038 | -82.01971 | 141 ft | 30 kts | 88° |
| 2026-04-22 00:10 | 27.99039 | -82.01772 | 141 ft | 20 kts | 91° |
| 2026-04-22 00:10 | 27.99039 | -82.01551 | 141 ft | 36 kts | 88° |
| 2026-04-22 00:10 | 27.99039 | -82.01245 | 143 ft | 38 kts | 90° |
| 2026-04-22 00:11 | 27.99041 | -82.00966 | 146 ft | 33 kts | 90° |
| 2026-04-22 00:11 | 27.99036 | -82.00797 | 148 ft | 17 kts | 115° |
| 2026-04-22 00:11 | 27.98917 | -82.00763 | 146 ft | 23 kts | 177° |
| 2026-04-22 00:11 | 27.98735 | -82.00747 | 142 ft | 29 kts | 176° |
| 2026-04-22 00:12 | 27.98650 | -82.00798 | 142 ft | 17 kts | 271° |
| 2026-04-22 00:12 | 27.98620 | -82.00982 | 141 ft | 30 kts | 249° |
| 2026-04-22 00:12 | 27.98519 | -82.01069 | 142 ft | 18 kts | 125° |
| 2026-04-22 00:12 | 27.98417 | -82.01099 | 142 ft | 24 kts | 252° |
| 2026-04-22 00:13 | 27.98417 | -82.01284 | 142 ft | 19 kts | 305° |
| 2026-04-22 00:13 | 27.98465 | -82.01319 | 143 ft | 0 kts | 25° |